Current | Forecast
Updated: 12:00 PM JST on November 22, 2017
Observed at Niigata Airport, Japan
Temperature 48°F
Humidity 54%
Dew Point 32°F
Wind SSE at 8 mph
Pressure 30.06 in (Falling)
Conditions Clear
Visibility -
UV N/A
Clouds
Yesterday's Maximum 46°F
Yesterday's Minimum 39°F approx.
Yesterday's Heating Degree Days 22 approx.
Sunrise6:31 AM JST
Sunset4:29 PM JST
Moon Rise9:20 AM JST
Moon Set7:30 PM JST
Moon PhaseMoon Phase
Waxing Crescent
Raw METARMETAR RJSN 220300Z 16007KT CAVOK 09/M00 Q1018


Monday
. High: 73° F.
Tuesday
. High: 73° F.
Wednesday
. High: 62° F.
Thursday
. High: 66° F.
Friday
. High: 68° F.
Saturday
. High: 66° F.
Sunday
. High: 66° F.
Monday
. High: 62° F.

Units: English | Metric

Find the Weather for any City, State or Zipcode, or Country:

U.S. State List | Severe Weather | Tropical Storms | Ski Conditions
United States | Canada | Central America | South America | Asia | Europe | Australia | Africa | Islands

Weather Underground

© Copyright 2017
The Weather Company, LLC